Terminal Aerodrome Forecast
Issued by NWS

Home | Current Version | Previous Version | Text Only | Print | Product List | Glossary Off
Versions: 1 2 3 4 5 6 7 8 9 10 11 12 13 14 15 16 17 18 19 20 21 22 23 24

469
FTUS43 KBIS 271504 AAA
TAFMOT
TAF AMD
KMOT 271504Z 2715/2812 35008KT 1 1/2SM BR BKN003
      TEMPO 2715/2716 1/2SM FG BKN003
     FM271600 36006KT 5SM BR BKN006
     FM271700 01006KT P6SM SCT010
      TEMPO 2717/2718 BKN010
     FM280600 06007KT P6SM OVC010=

USA.gov is the U.S. government's official web portal to all federal, state and local government web resources and services.